sensor_id;sensor_type;location;lat;lon;timestamp;P1;durP1;ratioP1;P2;durP2;ratioP2
32826;SDS011;51059;42.058;27.986;2023-03-03T00:02:21;11.73;;;6.80;;
32826;SDS011;51059;42.058;27.986;2023-03-03T00:04:46;9.50;;;6.30;;
32826;SDS011;51059;42.058;27.986;2023-03-03T00:07:12;12.77;;;6.50;;
32826;SDS011;51059;42.058;27.986;2023-03-03T00:09:39;13.60;;;6.77;;
32826;SDS011;51059;42.058;27.986;2023-03-03T00:12:16;10.47;;;6.43;;
32826;SDS011;51059;42.058;27.986;2023-03-03T00:14:46;10.57;;;6.00;;
32826;SDS011;51059;42.058;27.986;2023-03-03T00:17:14;12.53;;;6.23;;
32826;SDS011;51059;42.058;27.986;2023-03-03T00:19:48;11.80;;;6.13;;
32826;SDS011;51059;42.058;27.986;2023-03-03T00:22:16;12.53;;;5.80;;
32826;SDS011;51059;42.058;27.986;2023-03-03T00:24:46;10.13;;;6.40;;
32826;SDS011;51059;42.058;27.986;2023-03-03T00:27:20;11.43;;;5.53;;
32826;SDS011;51059;42.058;27.986;2023-03-03T00:29:58;14.10;;;6.13;;
32826;SDS011;51059;42.058;27.986;2023-03-03T00:35:30;14.97;;;5.93;;
32826;SDS011;51059;42.058;27.986;2023-03-03T00:38:01;10.27;;;5.70;;
32826;SDS011;51059;42.058;27.986;2023-03-03T00:40:36;9.70;;;6.07;;
32826;SDS011;51059;42.058;27.986;2023-03-03T00:43:27;13.27;;;6.20;;
32826;SDS011;51059;42.058;27.986;2023-03-03T00:45:52;15.87;;;6.20;;
32826;SDS011;51059;42.058;27.986;2023-03-03T00:50:48;13.73;;;6.10;;
32826;SDS011;51059;42.058;27.986;2023-03-03T00:53:17;11.53;;;5.83;;
32826;SDS011;51059;42.058;27.986;2023-03-03T00:55:44;9.87;;;5.70;;
32826;SDS011;51059;42.058;27.986;2023-03-03T00:58:11;12.97;;;5.87;;
32826;SDS011;51059;42.058;27.986;2023-03-03T01:00:38;12.57;;;5.70;;
32826;SDS011;51059;42.058;27.986;2023-03-03T01:03:08;11.73;;;5.90;;
32826;SDS011;51059;42.058;27.986;2023-03-03T01:05:36;13.83;;;5.73;;
32826;SDS011;51059;42.058;27.986;2023-03-03T01:08:02;9.07;;;5.53;;
32826;SDS011;51059;42.058;27.986;2023-03-03T01:10:28;12.40;;;6.17;;
32826;SDS011;51059;42.058;27.986;2023-03-03T01:12:56;9.00;;;5.40;;
32826;SDS011;51059;42.058;27.986;2023-03-03T01:15:22;12.40;;;5.50;;
32826;SDS011;51059;42.058;27.986;2023-03-03T01:17:48;9.40;;;5.47;;
32826;SDS011;51059;42.058;27.986;2023-03-03T01:20:14;11.77;;;6.03;;
32826;SDS011;51059;42.058;27.986;2023-03-03T01:22:40;11.67;;;5.47;;
32826;SDS011;51059;42.058;27.986;2023-03-03T01:25:06;12.10;;;6.13;;
32826;SDS011;51059;42.058;27.986;2023-03-03T01:27:33;11.60;;;5.23;;
32826;SDS011;51059;42.058;27.986;2023-03-03T01:29:59;10.30;;;5.10;;
32826;SDS011;51059;42.058;27.986;2023-03-03T01:32:25;7.87;;;5.53;;
32826;SDS011;51059;42.058;27.986;2023-03-03T01:34:52;9.73;;;5.50;;
32826;SDS011;51059;42.058;27.986;2023-03-03T01:37:17;9.37;;;5.13;;
32826;SDS011;51059;42.058;27.986;2023-03-03T01:39:46;9.37;;;5.30;;
32826;SDS011;51059;42.058;27.986;2023-03-03T01:42:33;9.47;;;5.73;;
32826;SDS011;51059;42.058;27.986;2023-03-03T01:48:32;9.63;;;5.17;;
32826;SDS011;51059;42.058;27.986;2023-03-03T01:50:48;9.37;;;5.03;;
32826;SDS011;51059;42.058;27.986;2023-03-03T01:53:17;8.03;;;5.50;;
32826;SDS011;51059;42.058;27.986;2023-03-03T01:55:44;9.30;;;4.60;;
32826;SDS011;51059;42.058;27.986;2023-03-03T01:58:13;10.80;;;5.17;;
32826;SDS011;51059;42.058;27.986;2023-03-03T02:00:42;10.60;;;5.03;;
32826;SDS011;51059;42.058;27.986;2023-03-03T02:03:10;11.53;;;5.07;;
32826;SDS011;51059;42.058;27.986;2023-03-03T02:05:36;9.17;;;4.93;;
32826;SDS011;51059;42.058;27.986;2023-03-03T02:08:03;12.80;;;4.90;;
32826;SDS011;51059;42.058;27.986;2023-03-03T02:10:29;7.40;;;4.50;;
32826;SDS011;51059;42.058;27.986;2023-03-03T02:12:55;11.53;;;5.50;;
32826;SDS011;51059;42.058;27.986;2023-03-03T02:17:48;9.83;;;4.83;;
32826;SDS011;51059;42.058;27.986;2023-03-03T02:20:22;9.47;;;4.80;;
32826;SDS011;51059;42.058;27.986;2023-03-03T02:26:28;9.60;;;4.77;;
32826;SDS011;51059;42.058;27.986;2023-03-03T02:28:32;10.33;;;5.20;;
32826;SDS011;51059;42.058;27.986;2023-03-03T02:30:59;11.37;;;5.00;;
32826;SDS011;51059;42.058;27.986;2023-03-03T02:33:25;8.73;;;4.90;;
32826;SDS011;51059;42.058;27.986;2023-03-03T02:35:52;11.03;;;5.00;;
32826;SDS011;51059;42.058;27.986;2023-03-03T02:40:57;8.40;;;4.77;;
32826;SDS011;51059;42.058;27.986;2023-03-03T02:44:10;7.53;;;4.80;;
32826;SDS011;51059;42.058;27.986;2023-03-03T02:46:36;10.93;;;5.40;;
32826;SDS011;51059;42.058;27.986;2023-03-03T02:49:04;10.43;;;4.93;;
32826;SDS011;51059;42.058;27.986;2023-03-03T02:51:30;8.83;;;5.27;;
32826;SDS011;51059;42.058;27.986;2023-03-03T02:53:56;10.33;;;5.10;;
32826;SDS011;51059;42.058;27.986;2023-03-03T02:56:22;8.73;;;5.10;;
32826;SDS011;51059;42.058;27.986;2023-03-03T02:58:47;11.83;;;5.30;;
32826;SDS011;51059;42.058;27.986;2023-03-03T03:01:13;8.97;;;4.80;;
32826;SDS011;51059;42.058;27.986;2023-03-03T03:03:39;11.90;;;5.03;;
32826;SDS011;51059;42.058;27.986;2023-03-03T03:06:05;10.97;;;4.77;;
32826;SDS011;51059;42.058;27.986;2023-03-03T03:08:30;12.33;;;5.30;;
32826;SDS011;51059;42.058;27.986;2023-03-03T03:10:56;9.53;;;4.73;;
32826;SDS011;51059;42.058;27.986;2023-03-03T03:13:22;10.63;;;5.13;;
32826;SDS011;51059;42.058;27.986;2023-03-03T03:15:48;10.13;;;5.00;;
32826;SDS011;51059;42.058;27.986;2023-03-03T03:18:14;9.60;;;4.97;;
32826;SDS011;51059;42.058;27.986;2023-03-03T03:20:40;10.63;;;4.83;;
32826;SDS011;51059;42.058;27.986;2023-03-03T03:23:06;10.07;;;5.30;;
32826;SDS011;51059;42.058;27.986;2023-03-03T03:25:32;11.43;;;5.20;;
32826;SDS011;51059;42.058;27.986;2023-03-03T03:27:58;13.53;;;4.83;;
32826;SDS011;51059;42.058;27.986;2023-03-03T03:30:23;10.70;;;5.50;;
32826;SDS011;51059;42.058;27.986;2023-03-03T03:32:49;11.20;;;5.23;;
32826;SDS011;51059;42.058;27.986;2023-03-03T03:35:15;11.23;;;5.03;;
32826;SDS011;51059;42.058;27.986;2023-03-03T03:37:41;10.57;;;5.03;;
32826;SDS011;51059;42.058;27.986;2023-03-03T03:40:08;8.07;;;4.87;;
32826;SDS011;51059;42.058;27.986;2023-03-03T03:42:34;11.93;;;5.50;;
32826;SDS011;51059;42.058;27.986;2023-03-03T03:44:59;12.60;;;5.37;;
32826;SDS011;51059;42.058;27.986;2023-03-03T03:47:25;14.07;;;5.30;;
32826;SDS011;51059;42.058;27.986;2023-03-03T03:49:50;12.27;;;5.27;;
32826;SDS011;51059;42.058;27.986;2023-03-03T03:52:16;11.40;;;5.07;;
32826;SDS011;51059;42.058;27.986;2023-03-03T03:54:41;10.80;;;4.63;;
32826;SDS011;51059;42.058;27.986;2023-03-03T03:57:07;10.53;;;4.83;;
32826;SDS011;51059;42.058;27.986;2023-03-03T03:59:33;9.43;;;4.83;;
32826;SDS011;51059;42.058;27.986;2023-03-03T04:01:58;9.70;;;4.80;;
32826;SDS011;51059;42.058;27.986;2023-03-03T04:04:24;9.50;;;4.90;;
32826;SDS011;51059;42.058;27.986;2023-03-03T04:06:49;11.23;;;5.03;;
32826;SDS011;51059;42.058;27.986;2023-03-03T04:09:15;12.77;;;5.37;;
32826;SDS011;51059;42.058;27.986;2023-03-03T04:11:40;9.70;;;5.33;;
32826;SDS011;51059;42.058;27.986;2023-03-03T04:14:06;9.80;;;5.40;;
32826;SDS011;51059;42.058;27.986;2023-03-03T04:16:32;8.67;;;5.10;;
32826;SDS011;51059;42.058;27.986;2023-03-03T04:18:57;10.50;;;5.07;;
32826;SDS011;51059;42.058;27.986;2023-03-03T04:21:23;9.20;;;5.07;;
32826;SDS011;51059;42.058;27.986;2023-03-03T04:23:49;9.17;;;5.37;;
32826;SDS011;51059;42.058;27.986;2023-03-03T04:26:15;8.30;;;4.70;;
32826;SDS011;51059;42.058;27.986;2023-03-03T04:28:40;9.23;;;4.93;;
32826;SDS011;51059;42.058;27.986;2023-03-03T04:31:06;8.80;;;4.80;;
32826;SDS011;51059;42.058;27.986;2023-03-03T04:33:32;10.43;;;5.30;;
32826;SDS011;51059;42.058;27.986;2023-03-03T04:35:57;9.20;;;5.00;;
32826;SDS011;51059;42.058;27.986;2023-03-03T04:38:23;7.60;;;4.67;;
32826;SDS011;51059;42.058;27.986;2023-03-03T04:40:49;12.60;;;5.43;;
32826;SDS011;51059;42.058;27.986;2023-03-03T04:43:14;10.10;;;5.50;;
32826;SDS011;51059;42.058;27.986;2023-03-03T04:45:40;11.00;;;4.73;;
32826;SDS011;51059;42.058;27.986;2023-03-03T04:48:06;7.93;;;4.60;;
32826;SDS011;51059;42.058;27.986;2023-03-03T04:50:31;12.70;;;4.90;;
32826;SDS011;51059;42.058;27.986;2023-03-03T04:52:58;10.33;;;4.63;;
32826;SDS011;51059;42.058;27.986;2023-03-03T04:55:24;13.00;;;5.00;;
32826;SDS011;51059;42.058;27.986;2023-03-03T04:57:49;10.00;;;4.63;;
32826;SDS011;51059;42.058;27.986;2023-03-03T05:00:15;8.90;;;4.57;;
32826;SDS011;51059;42.058;27.986;2023-03-03T05:02:41;9.13;;;4.73;;
32826;SDS011;51059;42.058;27.986;2023-03-03T05:05:07;8.63;;;5.20;;
32826;SDS011;51059;42.058;27.986;2023-03-03T05:07:37;9.77;;;4.90;;
32826;SDS011;51059;42.058;27.986;2023-03-03T05:10:03;8.20;;;4.60;;
32826;SDS011;51059;42.058;27.986;2023-03-03T05:12:30;9.60;;;4.97;;
32826;SDS011;51059;42.058;27.986;2023-03-03T05:14:55;10.17;;;4.93;;
32826;SDS011;51059;42.058;27.986;2023-03-03T05:17:21;7.37;;;5.20;;
32826;SDS011;51059;42.058;27.986;2023-03-03T05:19:46;8.80;;;4.87;;
32826;SDS011;51059;42.058;27.986;2023-03-03T05:22:12;7.93;;;4.93;;
32826;SDS011;51059;42.058;27.986;2023-03-03T05:24:38;8.67;;;5.10;;
32826;SDS011;51059;42.058;27.986;2023-03-03T05:27:03;9.80;;;4.83;;
32826;SDS011;51059;42.058;27.986;2023-03-03T05:29:29;13.10;;;5.10;;
32826;SDS011;51059;42.058;27.986;2023-03-03T05:31:56;11.03;;;5.10;;
32826;SDS011;51059;42.058;27.986;2023-03-03T05:34:22;10.17;;;4.90;;
32826;SDS011;51059;42.058;27.986;2023-03-03T05:36:48;8.07;;;4.80;;
32826;SDS011;51059;42.058;27.986;2023-03-03T05:39:13;8.47;;;5.37;;
32826;SDS011;51059;42.058;27.986;2023-03-03T05:41:39;7.87;;;4.83;;
32826;SDS011;51059;42.058;27.986;2023-03-03T05:44:04;7.90;;;5.10;;
32826;SDS011;51059;42.058;27.986;2023-03-03T05:46:30;9.47;;;5.00;;
32826;SDS011;51059;42.058;27.986;2023-03-03T05:48:56;8.27;;;4.83;;
32826;SDS011;51059;42.058;27.986;2023-03-03T05:51:21;12.40;;;4.97;;
32826;SDS011;51059;42.058;27.986;2023-03-03T05:53:47;9.27;;;4.73;;
32826;SDS011;51059;42.058;27.986;2023-03-03T05:56:12;9.07;;;4.90;;
32826;SDS011;51059;42.058;27.986;2023-03-03T05:58:38;10.83;;;4.77;;
32826;SDS011;51059;42.058;27.986;2023-03-03T06:01:04;8.77;;;5.10;;
32826;SDS011;51059;42.058;27.986;2023-03-03T06:03:29;9.20;;;5.30;;
32826;SDS011;51059;42.058;27.986;2023-03-03T06:05:55;7.53;;;5.23;;
32826;SDS011;51059;42.058;27.986;2023-03-03T06:08:21;7.50;;;4.73;;
32826;SDS011;51059;42.058;27.986;2023-03-03T06:10:47;9.73;;;5.23;;
32826;SDS011;51059;42.058;27.986;2023-03-03T06:13:13;8.67;;;5.20;;
32826;SDS011;51059;42.058;27.986;2023-03-03T06:15:38;9.33;;;5.10;;
32826;SDS011;51059;42.058;27.986;2023-03-03T06:18:04;9.90;;;5.40;;
32826;SDS011;51059;42.058;27.986;2023-03-03T06:20:29;11.17;;;5.50;;
32826;SDS011;51059;42.058;27.986;2023-03-03T06:22:56;9.37;;;5.17;;
32826;SDS011;51059;42.058;27.986;2023-03-03T06:25:22;8.20;;;5.20;;
32826;SDS011;51059;42.058;27.986;2023-03-03T06:27:47;11.27;;;5.37;;
32826;SDS011;51059;42.058;27.986;2023-03-03T06:30:13;6.60;;;5.03;;
32826;SDS011;51059;42.058;27.986;2023-03-03T06:32:39;9.20;;;5.43;;
32826;SDS011;51059;42.058;27.986;2023-03-03T06:35:04;8.53;;;5.57;;
32826;SDS011;51059;42.058;27.986;2023-03-03T06:37:30;8.87;;;5.17;;
32826;SDS011;51059;42.058;27.986;2023-03-03T06:39:56;8.30;;;5.43;;
32826;SDS011;51059;42.058;27.986;2023-03-03T06:42:21;8.80;;;5.63;;
32826;SDS011;51059;42.058;27.986;2023-03-03T06:44:48;8.83;;;5.60;;
32826;SDS011;51059;42.058;27.986;2023-03-03T06:47:14;7.87;;;5.33;;
32826;SDS011;51059;42.058;27.986;2023-03-03T06:49:40;11.93;;;5.83;;
32826;SDS011;51059;42.058;27.986;2023-03-03T06:52:12;9.00;;;5.80;;
32826;SDS011;51059;42.058;27.986;2023-03-03T06:54:39;10.13;;;5.60;;
32826;SDS011;51059;42.058;27.986;2023-03-03T06:59:57;9.47;;;5.53;;
32826;SDS011;51059;42.058;27.986;2023-03-03T07:02:37;8.83;;;5.53;;
32826;SDS011;51059;42.058;27.986;2023-03-03T07:05:05;8.00;;;5.47;;
32826;SDS011;51059;42.058;27.986;2023-03-03T07:07:33;10.07;;;5.97;;
32826;SDS011;51059;42.058;27.986;2023-03-03T07:09:59;12.10;;;5.67;;
32826;SDS011;51059;42.058;27.986;2023-03-03T07:12:25;7.20;;;5.40;;
32826;SDS011;51059;42.058;27.986;2023-03-03T07:14:54;10.73;;;5.57;;
32826;SDS011;51059;42.058;27.986;2023-03-03T07:17:26;8.87;;;5.03;;
32826;SDS011;51059;42.058;27.986;2023-03-03T07:19:52;7.50;;;5.40;;
32826;SDS011;51059;42.058;27.986;2023-03-03T07:22:19;8.90;;;5.33;;
32826;SDS011;51059;42.058;27.986;2023-03-03T07:25:05;9.13;;;5.83;;
32826;SDS011;51059;42.058;27.986;2023-03-03T07:27:42;7.37;;;5.43;;
32826;SDS011;51059;42.058;27.986;2023-03-03T07:32:52;8.30;;;5.73;;
32826;SDS011;51059;42.058;27.986;2023-03-03T07:37:52;8.57;;;5.57;;
32826;SDS011;51059;42.058;27.986;2023-03-03T07:40:34;9.47;;;5.73;;
32826;SDS011;51059;42.058;27.986;2023-03-03T07:43:12;8.23;;;5.63;;
32826;SDS011;51059;42.058;27.986;2023-03-03T07:48:36;11.73;;;5.90;;
32826;SDS011;51059;42.058;27.986;2023-03-03T07:51:10;9.87;;;6.17;;
32826;SDS011;51059;42.058;27.986;2023-03-03T07:53:37;8.10;;;5.67;;
32826;SDS011;51059;42.058;27.986;2023-03-03T07:56:36;12.57;;;5.63;;
32826;SDS011;51059;42.058;27.986;2023-03-03T07:58:58;9.10;;;5.77;;
32826;SDS011;51059;42.058;27.986;2023-03-03T08:01:34;10.87;;;5.67;;
32826;SDS011;51059;42.058;27.986;2023-03-03T08:04:49;9.47;;;5.90;;
32826;SDS011;51059;42.058;27.986;2023-03-03T08:06:57;8.20;;;5.70;;
32826;SDS011;51059;42.058;27.986;2023-03-03T08:14:46;9.67;;;6.77;;
32826;SDS011;51059;42.058;27.986;2023-03-03T08:17:24;12.80;;;6.93;;
32826;SDS011;51059;42.058;27.986;2023-03-03T08:19:56;10.67;;;6.40;;
32826;SDS011;51059;42.058;27.986;2023-03-03T08:22:34;9.83;;;6.03;;
32826;SDS011;51059;42.058;27.986;2023-03-03T08:25:00;9.80;;;6.13;;
32826;SDS011;51059;42.058;27.986;2023-03-03T08:27:26;9.77;;;6.30;;
32826;SDS011;51059;42.058;27.986;2023-03-03T08:29:52;9.33;;;6.73;;
32826;SDS011;51059;42.058;27.986;2023-03-03T08:32:17;10.20;;;6.63;;
32826;SDS011;51059;42.058;27.986;2023-03-03T08:34:43;10.33;;;6.17;;
32826;SDS011;51059;42.058;27.986;2023-03-03T08:37:09;9.97;;;5.90;;
32826;SDS011;51059;42.058;27.986;2023-03-03T08:39:34;11.43;;;6.40;;
32826;SDS011;51059;42.058;27.986;2023-03-03T08:42:00;10.63;;;7.53;;
32826;SDS011;51059;42.058;27.986;2023-03-03T08:44:25;10.83;;;7.37;;
32826;SDS011;51059;42.058;27.986;2023-03-03T08:46:51;10.17;;;7.23;;
32826;SDS011;51059;42.058;27.986;2023-03-03T08:49:17;8.97;;;6.60;;
32826;SDS011;51059;42.058;27.986;2023-03-03T08:51:43;11.30;;;6.40;;
32826;SDS011;51059;42.058;27.986;2023-03-03T08:54:08;8.87;;;6.33;;
32826;SDS011;51059;42.058;27.986;2023-03-03T08:56:34;10.97;;;6.43;;
32826;SDS011;51059;42.058;27.986;2023-03-03T08:58:59;8.67;;;5.70;;
32826;SDS011;51059;42.058;27.986;2023-03-03T09:01:25;8.33;;;5.80;;
32826;SDS011;51059;42.058;27.986;2023-03-03T09:03:51;6.87;;;5.03;;
32826;SDS011;51059;42.058;27.986;2023-03-03T09:06:16;10.90;;;5.90;;
32826;SDS011;51059;42.058;27.986;2023-03-03T09:08:42;6.63;;;5.30;;
32826;SDS011;51059;42.058;27.986;2023-03-03T09:11:11;9.53;;;5.67;;
32826;SDS011;51059;42.058;27.986;2023-03-03T09:13:37;10.60;;;5.30;;
32826;SDS011;51059;42.058;27.986;2023-03-03T09:16:06;9.17;;;5.60;;
32826;SDS011;51059;42.058;27.986;2023-03-03T09:18:39;6.83;;;5.50;;
32826;SDS011;51059;42.058;27.986;2023-03-03T09:24:03;8.27;;;5.50;;
32826;SDS011;51059;42.058;27.986;2023-03-03T09:26:31;9.17;;;5.67;;
32826;SDS011;51059;42.058;27.986;2023-03-03T09:31:38;8.97;;;5.87;;
32826;SDS011;51059;42.058;27.986;2023-03-03T09:34:26;9.57;;;5.90;;
32826;SDS011;51059;42.058;27.986;2023-03-03T09:37:00;11.00;;;5.43;;
32826;SDS011;51059;42.058;27.986;2023-03-03T09:39:28;7.40;;;5.70;;
32826;SDS011;51059;42.058;27.986;2023-03-03T09:42:01;8.47;;;5.70;;
32826;SDS011;51059;42.058;27.986;2023-03-03T10:08:35;7.57;;;6.03;;
32826;SDS011;51059;42.058;27.986;2023-03-03T10:13:57;9.90;;;6.60;;
32826;SDS011;51059;42.058;27.986;2023-03-03T10:16:29;10.40;;;6.20;;
32826;SDS011;51059;42.058;27.986;2023-03-03T10:22:07;8.73;;;6.37;;
32826;SDS011;51059;42.058;27.986;2023-03-03T10:24:54;7.97;;;6.07;;
32826;SDS011;51059;42.058;27.986;2023-03-03T10:33:21;10.63;;;7.00;;
32826;SDS011;51059;42.058;27.986;2023-03-03T10:58:04;9.60;;;7.43;;
32826;SDS011;51059;42.058;27.986;2023-03-03T11:00:42;9.40;;;7.30;;
32826;SDS011;51059;42.058;27.986;2023-03-03T11:08:18;8.97;;;6.87;;
32826;SDS011;51059;42.058;27.986;2023-03-03T11:11:09;12.07;;;7.33;;
32826;SDS011;51059;42.058;27.986;2023-03-03T11:16:41;11.87;;;7.50;;
32826;SDS011;51059;42.058;27.986;2023-03-03T11:21:46;9.03;;;7.50;;
32826;SDS011;51059;42.058;27.986;2023-03-03T11:24:22;9.13;;;7.33;;
32826;SDS011;51059;42.058;27.986;2023-03-03T11:27:02;9.37;;;6.83;;
32826;SDS011;51059;42.058;27.986;2023-03-03T11:29:33;8.70;;;6.93;;
32826;SDS011;51059;42.058;27.986;2023-03-03T11:40:00;10.53;;;7.57;;
32826;SDS011;51059;42.058;27.986;2023-03-03T11:42:43;10.47;;;7.20;;
32826;SDS011;51059;42.058;27.986;2023-03-03T11:45:33;9.20;;;7.17;;
32826;SDS011;51059;42.058;27.986;2023-03-03T11:48:13;10.37;;;7.60;;
32826;SDS011;51059;42.058;27.986;2023-03-03T12:01:56;11.17;;;7.50;;
32826;SDS011;51059;42.058;27.986;2023-03-03T12:04:33;11.20;;;7.70;;
32826;SDS011;51059;42.058;27.986;2023-03-03T12:10:00;10.97;;;7.40;;
32826;SDS011;51059;42.058;27.986;2023-03-03T12:12:56;11.30;;;7.30;;
32826;SDS011;51059;42.058;27.986;2023-03-03T12:15:40;11.10;;;7.63;;
32826;SDS011;51059;42.058;27.986;2023-03-03T12:26:39;9.27;;;7.63;;
32826;SDS011;51059;42.058;27.986;2023-03-03T12:35:10;11.20;;;8.03;;
32826;SDS011;51059;42.058;27.986;2023-03-03T12:38:05;10.40;;;7.70;;
32826;SDS011;51059;42.058;27.986;2023-03-03T12:40:40;11.03;;;8.57;;
32826;SDS011;51059;42.058;27.986;2023-03-03T12:46:04;11.10;;;8.37;;
32826;SDS011;51059;42.058;27.986;2023-03-03T12:48:41;14.53;;;8.53;;
32826;SDS011;51059;42.058;27.986;2023-03-03T12:56:30;13.53;;;8.50;;
32826;SDS011;51059;42.058;27.986;2023-03-03T12:59:08;11.17;;;8.50;;
32826;SDS011;51059;42.058;27.986;2023-03-03T13:07:40;12.20;;;8.70;;
32826;SDS011;51059;42.058;27.986;2023-03-03T13:12:53;14.73;;;9.10;;
32826;SDS011;51059;42.058;27.986;2023-03-03T13:15:24;13.67;;;9.53;;
32826;SDS011;51059;42.058;27.986;2023-03-03T13:20:47;12.83;;;8.90;;
32826;SDS011;51059;42.058;27.986;2023-03-03T13:23:30;13.70;;;9.40;;
32826;SDS011;51059;42.058;27.986;2023-03-03T13:26:19;16.43;;;9.70;;
32826;SDS011;51059;42.058;27.986;2023-03-03T13:31:48;11.33;;;9.00;;
32826;SDS011;51059;42.058;27.986;2023-03-03T13:35:03;14.03;;;9.37;;
32826;SDS011;51059;42.058;27.986;2023-03-03T13:37:29;14.07;;;8.80;;
32826;SDS011;51059;42.058;27.986;2023-03-03T13:40:17;11.67;;;8.83;;
32826;SDS011;51059;42.058;27.986;2023-03-03T13:42:46;13.53;;;9.37;;
32826;SDS011;51059;42.058;27.986;2023-03-03T13:45:24;11.47;;;8.87;;
32826;SDS011;51059;42.058;27.986;2023-03-03T14:01:20;13.60;;;9.33;;
32826;SDS011;51059;42.058;27.986;2023-03-03T14:06:23;14.40;;;9.70;;
32826;SDS011;51059;42.058;27.986;2023-03-03T14:12:03;14.67;;;10.13;;
32826;SDS011;51059;42.058;27.986;2023-03-03T14:15:06;15.17;;;9.37;;
32826;SDS011;51059;42.058;27.986;2023-03-03T14:20:38;13.77;;;10.13;;
32826;SDS011;51059;42.058;27.986;2023-03-03T14:23:10;14.17;;;9.77;;
32826;SDS011;51059;42.058;27.986;2023-03-03T14:28:28;15.07;;;9.60;;
32826;SDS011;51059;42.058;27.986;2023-03-03T14:31:25;12.10;;;9.00;;
32826;SDS011;51059;42.058;27.986;2023-03-03T14:34:01;15.30;;;9.40;;
32826;SDS011;51059;42.058;27.986;2023-03-03T14:36:31;13.90;;;9.77;;
32826;SDS011;51059;42.058;27.986;2023-03-03T14:38:59;14.37;;;9.63;;
32826;SDS011;51059;42.058;27.986;2023-03-03T14:41:38;15.97;;;9.80;;
32826;SDS011;51059;42.058;27.986;2023-03-03T14:47:02;12.73;;;8.97;;
32826;SDS011;51059;42.058;27.986;2023-03-03T14:49:37;14.10;;;9.83;;
32826;SDS011;51059;42.058;27.986;2023-03-03T14:54:42;13.90;;;9.90;;
32826;SDS011;51059;42.058;27.986;2023-03-03T14:57:54;13.43;;;9.33;;
32826;SDS011;51059;42.058;27.986;2023-03-03T15:05:23;16.70;;;9.90;;
32826;SDS011;51059;42.058;27.986;2023-03-03T15:10:28;15.37;;;10.00;;
32826;SDS011;51059;42.058;27.986;2023-03-03T15:13:01;14.03;;;9.70;;
32826;SDS011;51059;42.058;27.986;2023-03-03T15:18:30;14.50;;;10.47;;
32826;SDS011;51059;42.058;27.986;2023-03-03T15:26:29;13.00;;;9.57;;
32826;SDS011;51059;42.058;27.986;2023-03-03T15:29:15;12.50;;;9.83;;
32826;SDS011;51059;42.058;27.986;2023-03-03T15:34:43;14.10;;;10.00;;
32826;SDS011;51059;42.058;27.986;2023-03-03T15:54:01;14.30;;;10.57;;
32826;SDS011;51059;42.058;27.986;2023-03-03T15:56:43;16.03;;;10.33;;
32826;SDS011;51059;42.058;27.986;2023-03-03T16:04:17;14.03;;;10.30;;
32826;SDS011;51059;42.058;27.986;2023-03-03T16:20:59;15.07;;;10.50;;
32826;SDS011;51059;42.058;27.986;2023-03-03T16:31:19;16.27;;;10.90;;
32826;SDS011;51059;42.058;27.986;2023-03-03T16:33:54;16.33;;;11.13;;
32826;SDS011;51059;42.058;27.986;2023-03-03T16:39:44;17.23;;;11.10;;
32826;SDS011;51059;42.058;27.986;2023-03-03T16:42:27;15.53;;;10.57;;
32826;SDS011;51059;42.058;27.986;2023-03-03T16:45:39;19.93;;;10.93;;
32826;SDS011;51059;42.058;27.986;2023-03-03T16:53:31;14.33;;;10.67;;
32826;SDS011;51059;42.058;27.986;2023-03-03T16:56:20;14.47;;;10.83;;
32826;SDS011;51059;42.058;27.986;2023-03-03T16:58:52;14.77;;;10.27;;
32826;SDS011;51059;42.058;27.986;2023-03-03T17:04:33;14.27;;;10.13;;
32826;SDS011;51059;42.058;27.986;2023-03-03T17:12:45;16.43;;;11.03;;
32826;SDS011;51059;42.058;27.986;2023-03-03T17:15:36;15.27;;;11.23;;
32826;SDS011;51059;42.058;27.986;2023-03-03T17:32:00;23.20;;;19.03;;
32826;SDS011;51059;42.058;27.986;2023-03-03T17:40:36;28.37;;;21.57;;
32826;SDS011;51059;42.058;27.986;2023-03-03T17:43:44;35.07;;;25.93;;
32826;SDS011;51059;42.058;27.986;2023-03-03T17:46:15;40.40;;;29.47;;
32826;SDS011;51059;42.058;27.986;2023-03-03T18:08:00;20.73;;;14.30;;
32826;SDS011;51059;42.058;27.986;2023-03-03T18:21:01;20.77;;;14.27;;
32826;SDS011;51059;42.058;27.986;2023-03-03T18:23:40;26.33;;;16.70;;
32826;SDS011;51059;42.058;27.986;2023-03-03T18:29:08;29.57;;;19.77;;
32826;SDS011;51059;42.058;27.986;2023-03-03T18:36:55;21.50;;;15.43;;
32826;SDS011;51059;42.058;27.986;2023-03-03T18:42:41;25.20;;;15.67;;
32826;SDS011;51059;42.058;27.986;2023-03-03T18:45:10;22.77;;;16.53;;
32826;SDS011;51059;42.058;27.986;2023-03-03T18:55:51;20.13;;;14.27;;
32826;SDS011;51059;42.058;27.986;2023-03-03T19:00:54;21.60;;;14.37;;
32826;SDS011;51059;42.058;27.986;2023-03-03T19:06:05;22.27;;;15.57;;
32826;SDS011;51059;42.058;27.986;2023-03-03T19:08:50;18.63;;;14.77;;
32826;SDS011;51059;42.058;27.986;2023-03-03T19:11:53;18.73;;;15.57;;
32826;SDS011;51059;42.058;27.986;2023-03-03T19:16:54;17.80;;;13.60;;
32826;SDS011;51059;42.058;27.986;2023-03-03T19:19:21;20.67;;;13.67;;
32826;SDS011;51059;42.058;27.986;2023-03-03T19:21:50;17.13;;;13.70;;
32826;SDS011;51059;42.058;27.986;2023-03-03T19:24:32;20.50;;;14.50;;
32826;SDS011;51059;42.058;27.986;2023-03-03T19:27:04;21.83;;;16.30;;
32826;SDS011;51059;42.058;27.986;2023-03-03T19:35:06;27.60;;;18.60;;
32826;SDS011;51059;42.058;27.986;2023-03-03T19:42:35;22.57;;;17.53;;
32826;SDS011;51059;42.058;27.986;2023-03-03T19:45:35;25.73;;;18.77;;
32826;SDS011;51059;42.058;27.986;2023-03-03T19:48:05;27.30;;;20.40;;
32826;SDS011;51059;42.058;27.986;2023-03-03T19:56:34;34.33;;;21.60;;
32826;SDS011;51059;42.058;27.986;2023-03-03T20:04:43;26.43;;;19.87;;
32826;SDS011;51059;42.058;27.986;2023-03-03T20:19:00;20.10;;;15.20;;
32826;SDS011;51059;42.058;27.986;2023-03-03T20:21:26;23.17;;;14.97;;
32826;SDS011;51059;42.058;27.986;2023-03-03T20:24:01;19.77;;;13.80;;
32826;SDS011;51059;42.058;27.986;2023-03-03T20:29:19;19.07;;;14.50;;
32826;SDS011;51059;42.058;27.986;2023-03-03T20:34:42;19.90;;;13.97;;
32826;SDS011;51059;42.058;27.986;2023-03-03T20:51:31;29.43;;;19.93;;
32826;SDS011;51059;42.058;27.986;2023-03-03T20:56:38;26.20;;;18.17;;
32826;SDS011;51059;42.058;27.986;2023-03-03T20:59:14;27.30;;;18.67;;
32826;SDS011;51059;42.058;27.986;2023-03-03T21:04:20;21.20;;;15.47;;
32826;SDS011;51059;42.058;27.986;2023-03-03T21:06:48;25.27;;;15.83;;
32826;SDS011;51059;42.058;27.986;2023-03-03T21:11:49;20.40;;;15.00;;
32826;SDS011;51059;42.058;27.986;2023-03-03T21:14:19;22.27;;;15.30;;
32826;SDS011;51059;42.058;27.986;2023-03-03T21:16:48;20.40;;;15.57;;
32826;SDS011;51059;42.058;27.986;2023-03-03T21:21:56;22.73;;;15.83;;
32826;SDS011;51059;42.058;27.986;2023-03-03T21:24:30;21.60;;;16.47;;
32826;SDS011;51059;42.058;27.986;2023-03-03T21:30:04;21.27;;;14.73;;
32826;SDS011;51059;42.058;27.986;2023-03-03T21:35:18;16.77;;;12.50;;
32826;SDS011;51059;42.058;27.986;2023-03-03T21:37:49;17.83;;;12.83;;
32826;SDS011;51059;42.058;27.986;2023-03-03T21:40:23;16.87;;;13.17;;
32826;SDS011;51059;42.058;27.986;2023-03-03T21:42:51;16.70;;;11.97;;
32826;SDS011;51059;42.058;27.986;2023-03-03T21:45:17;17.13;;;12.30;;
32826;SDS011;51059;42.058;27.986;2023-03-03T21:47:47;17.40;;;12.50;;
32826;SDS011;51059;42.058;27.986;2023-03-03T21:50:14;17.93;;;12.93;;